sensor_id;sensor_type;location;lat;lon;timestamp;pressure;altitude;pressure_sealevel;temperature;humidity
55079;BME280;55187;49.496;6.010;2022-09-09T00:00:12;96905.31;;;11.74;100.00
55079;BME280;55187;49.496;6.010;2022-09-09T00:02:38;96922.13;;;11.55;100.00
55079;BME280;55187;49.496;6.010;2022-09-09T00:05:19;96923.16;;;11.41;100.00
55079;BME280;55187;49.496;6.010;2022-09-09T00:07:54;96924.59;;;11.43;100.00
55079;BME280;55187;49.496;6.010;2022-09-09T00:10:36;96919.44;;;11.62;100.00
55079;BME280;55187;49.496;6.010;2022-09-09T00:16:10;96934.25;;;11.89;100.00
55079;BME280;55187;49.496;6.010;2022-09-09T00:21:35;96939.16;;;11.72;100.00
55079;BME280;55187;49.496;6.010;2022-09-09T00:24:11;96947.72;;;11.81;
55079;BME280;55187;49.496;6.010;2022-09-09T00:26:55;96940.59;;;11.75;100.00
55079;BME280;55187;49.496;6.010;2022-09-09T00:29:32;96942.59;;;11.86;100.00
55079;BME280;55187;49.496;6.010;2022-09-09T00:32:11;96939.56;;;11.76;100.00
55079;BME280;55187;49.496;6.010;2022-09-09T00:34:49;96936.69;;;11.77;100.00
55079;BME280;55187;49.496;6.010;2022-09-09T00:37:17;96949.56;;;11.74;100.00
55079;BME280;55187;49.496;6.010;2022-09-09T00:39:46;96943.03;;;11.76;100.00
55079;BME280;55187;49.496;6.010;2022-09-09T00:42:17;96954.22;;;11.85;100.00
55079;BME280;55187;49.496;6.010;2022-09-09T00:47:43;96949.16;;;11.77;100.00
55079;BME280;55187;49.496;6.010;2022-09-09T00:53:19;96953.47;;;11.65;100.00
55079;BME280;55187;49.496;6.010;2022-09-09T00:58:42;96941.50;;;11.49;100.00
55079;BME280;55187;49.496;6.010;2022-09-09T01:01:12;96942.75;;;11.33;100.00
55079;BME280;55187;49.496;6.010;2022-09-09T01:03:52;96945.63;;;11.25;100.00
55079;BME280;55187;49.496;6.010;2022-09-09T01:06:35;96946.81;;;11.42;100.00
55079;BME280;55187;49.496;6.010;2022-09-09T01:09:24;96946.16;;;11.60;100.00
55079;BME280;55187;49.496;6.010;2022-09-09T01:12:12;96940.00;;;11.66;100.00
55079;BME280;55187;49.496;6.010;2022-09-09T01:14:48;96942.25;;;11.69;100.00
55079;BME280;55187;49.496;6.010;2022-09-09T01:17:28;96947.31;;;11.71;100.00
55079;BME280;55187;49.496;6.010;2022-09-09T01:20:20;96945.50;;;11.78;100.00
55079;BME280;55187;49.496;6.010;2022-09-09T01:26:24;96944.84;;;11.83;100.00
55079;BME280;55187;49.496;6.010;2022-09-09T01:28:55;96938.53;;;11.77;100.00
55079;BME280;55187;49.496;6.010;2022-09-09T01:31:36;96937.53;;;11.78;100.00
55079;BME280;55187;49.496;6.010;2022-09-09T01:34:09;96943.81;;;11.90;100.00
55079;BME280;55187;49.496;6.010;2022-09-09T01:36:42;96935.06;;;11.83;100.00
55079;BME280;55187;49.496;6.010;2022-09-09T01:39:12;96933.66;;;11.87;100.00
55079;BME280;55187;49.496;6.010;2022-09-09T01:41:39;96927.47;;;11.93;100.00
55079;BME280;55187;49.496;6.010;2022-09-09T01:44:10;96924.03;;;11.93;100.00
55079;BME280;55187;49.496;6.010;2022-09-09T01:46:39;96920.56;;;11.86;100.00
55079;BME280;55187;49.496;6.010;2022-09-09T01:49:12;96921.38;;;11.93;100.00
55079;BME280;55187;49.496;6.010;2022-09-09T01:51:40;96928.34;;;11.87;100.00
55079;BME280;55187;49.496;6.010;2022-09-09T01:54:11;96925.91;;;11.79;100.00
55079;BME280;55187;49.496;6.010;2022-09-09T01:57:04;96927.31;;;11.88;100.00
55079;BME280;55187;49.496;6.010;2022-09-09T02:02:36;96933.41;;;11.82;100.00
55079;BME280;55187;49.496;6.010;2022-09-09T02:08:33;96928.19;;;11.69;100.00
55079;BME280;55187;49.496;6.010;2022-09-09T02:11:12;96920.41;;;11.74;100.00
55079;BME280;55187;49.496;6.010;2022-09-09T02:13:45;96924.53;;;11.63;100.00
55079;BME280;55187;49.496;6.010;2022-09-09T02:16:28;96925.94;;;11.66;100.00
55079;BME280;55187;49.496;6.010;2022-09-09T02:19:02;96925.34;;;11.57;100.00
55079;BME280;55187;49.496;6.010;2022-09-09T02:21:45;96922.94;;;11.55;100.00
55079;BME280;55187;49.496;6.010;2022-09-09T02:24:14;96918.44;;;11.56;100.00
55079;BME280;55187;49.496;6.010;2022-09-09T02:26:50;96918.88;;;11.53;100.00
55079;BME280;55187;49.496;6.010;2022-09-09T02:29:22;96923.34;;;11.52;100.00
55079;BME280;55187;49.496;6.010;2022-09-09T02:31:52;96925.59;;;11.55;100.00
55079;BME280;55187;49.496;6.010;2022-09-09T02:34:25;96923.56;;;11.51;100.00
55079;BME280;55187;49.496;6.010;2022-09-09T02:36:54;96923.75;;;11.49;100.00
55079;BME280;55187;49.496;6.010;2022-09-09T02:39:22;96919.91;;;11.39;100.00
55079;BME280;55187;49.496;6.010;2022-09-09T02:41:51;96924.84;;;11.35;100.00
55079;BME280;55187;49.496;6.010;2022-09-09T02:44:18;96920.97;;;11.24;100.00
55079;BME280;55187;49.496;6.010;2022-09-09T02:50:02;96923.44;;;11.26;100.00
55079;BME280;55187;49.496;6.010;2022-09-09T02:52:51;96925.84;;;11.34;100.00
55079;BME280;55187;49.496;6.010;2022-09-09T02:55:39;96924.03;;;11.34;100.00
55079;BME280;55187;49.496;6.010;2022-09-09T02:58:13;96928.91;;;11.38;100.00
55079;BME280;55187;49.496;6.010;2022-09-09T03:00:45;96922.78;;;11.44;100.00
55079;BME280;55187;49.496;6.010;2022-09-09T03:03:13;96913.59;;;11.40;100.00
55079;BME280;55187;49.496;6.010;2022-09-09T03:05:39;96913.38;;;11.48;100.00
55079;BME280;55187;49.496;6.010;2022-09-09T03:08:07;96917.47;;;11.44;100.00
55079;BME280;55187;49.496;6.010;2022-09-09T03:10:33;96915.78;;;11.56;100.00
55079;BME280;55187;49.496;6.010;2022-09-09T03:13:01;96919.50;;;11.48;100.00
55079;BME280;55187;49.496;6.010;2022-09-09T03:15:33;96917.19;;;11.65;100.00
55079;BME280;55187;49.496;6.010;2022-09-09T03:17:59;96923.53;;;11.64;100.00
55079;BME280;55187;49.496;6.010;2022-09-09T03:20:28;96911.69;;;11.67;100.00
55079;BME280;55187;49.496;6.010;2022-09-09T03:22:55;96931.50;;;11.58;100.00
55079;BME280;55187;49.496;6.010;2022-09-09T03:25:23;96929.84;;;11.57;100.00
55079;BME280;55187;49.496;6.010;2022-09-09T03:27:52;96923.13;;;11.61;100.00
55079;BME280;55187;49.496;6.010;2022-09-09T03:30:22;96910.91;;;11.60;100.00
55079;BME280;55187;49.496;6.010;2022-09-09T03:32:49;96924.34;;;11.58;100.00
55079;BME280;55187;49.496;6.010;2022-09-09T03:35:16;96924.72;;;11.68;100.00
55079;BME280;55187;49.496;6.010;2022-09-09T03:37:43;96921.53;;;11.53;100.00
55079;BME280;55187;49.496;6.010;2022-09-09T03:40:11;96923.56;;;11.51;100.00
55079;BME280;55187;49.496;6.010;2022-09-09T03:42:38;96925.97;;;11.52;100.00
55079;BME280;55187;49.496;6.010;2022-09-09T03:45:07;96924.97;;;11.53;100.00
55079;BME280;55187;49.496;6.010;2022-09-09T03:47:36;96929.47;;;11.53;100.00
55079;BME280;55187;49.496;6.010;2022-09-09T03:50:07;96933.16;;;11.39;100.00
55079;BME280;55187;49.496;6.010;2022-09-09T03:52:37;96925.63;;;11.42;100.00
55079;BME280;55187;49.496;6.010;2022-09-09T03:55:07;96923.38;;;11.46;100.00
55079;BME280;55187;49.496;6.010;2022-09-09T03:57:35;96923.31;;;11.59;100.00
55079;BME280;55187;49.496;6.010;2022-09-09T04:00:05;96924.09;;;11.66;100.00
55079;BME280;55187;49.496;6.010;2022-09-09T04:02:42;96919.41;;;11.68;100.00
55079;BME280;55187;49.496;6.010;2022-09-09T04:05:12;96923.72;;;11.63;100.00
55079;BME280;55187;49.496;6.010;2022-09-09T04:07:41;96916.16;;;11.66;100.00
55079;BME280;55187;49.496;6.010;2022-09-09T04:10:09;96911.22;;;11.76;100.00
55079;BME280;55187;49.496;6.010;2022-09-09T04:12:38;96921.41;;;11.80;100.00
55079;BME280;55187;49.496;6.010;2022-09-09T04:15:05;96915.25;;;11.86;100.00
55079;BME280;55187;49.496;6.010;2022-09-09T04:17:32;96923.41;;;11.84;100.00
55079;BME280;55187;49.496;6.010;2022-09-09T04:19:59;96923.41;;;11.84;100.00
55079;BME280;55187;49.496;6.010;2022-09-09T04:22:27;96924.66;;;11.88;100.00
55079;BME280;55187;49.496;6.010;2022-09-09T04:24:53;96931.78;;;11.94;100.00
55079;BME280;55187;49.496;6.010;2022-09-09T04:27:20;96933.00;;;11.92;100.00
55079;BME280;55187;49.496;6.010;2022-09-09T04:29:47;96926.66;;;11.86;100.00
55079;BME280;55187;49.496;6.010;2022-09-09T04:32:14;96921.03;;;11.76;100.00
55079;BME280;55187;49.496;6.010;2022-09-09T04:34:41;96923.25;;;11.79;100.00
55079;BME280;55187;49.496;6.010;2022-09-09T04:37:09;96923.66;;;11.76;100.00
55079;BME280;55187;49.496;6.010;2022-09-09T04:39:36;96922.84;;;11.75;100.00
55079;BME280;55187;49.496;6.010;2022-09-09T04:42:03;96924.69;;;11.75;100.00
55079;BME280;55187;49.496;6.010;2022-09-09T04:44:31;96929.38;;;11.73;100.00
55079;BME280;55187;49.496;6.010;2022-09-09T04:46:58;96921.03;;;11.69;100.00
55079;BME280;55187;49.496;6.010;2022-09-09T04:49:25;96931.66;;;11.63;100.00
55079;BME280;55187;49.496;6.010;2022-09-09T04:51:52;96935.72;;;11.72;100.00
55079;BME280;55187;49.496;6.010;2022-09-09T04:54:19;96931.25;;;11.66;100.00
55079;BME280;55187;49.496;6.010;2022-09-09T04:56:46;96921.41;;;11.73;100.00
55079;BME280;55187;49.496;6.010;2022-09-09T04:59:12;96931.63;;;11.76;100.00
55079;BME280;55187;49.496;6.010;2022-09-09T05:01:44;96940.59;;;11.68;100.00
55079;BME280;55187;49.496;6.010;2022-09-09T05:04:11;96937.56;;;11.71;100.00
55079;BME280;55187;49.496;6.010;2022-09-09T05:06:37;96935.88;;;11.77;100.00
55079;BME280;55187;49.496;6.010;2022-09-09T05:09:05;96935.88;;;11.84;100.00
55079;BME280;55187;49.496;6.010;2022-09-09T05:11:32;96935.91;;;12.22;100.00
55079;BME280;55187;49.496;6.010;2022-09-09T05:14:05;96931.97;;;12.31;100.00
55079;BME280;55187;49.496;6.010;2022-09-09T05:16:32;96936.50;;;12.24;100.00
55079;BME280;55187;49.496;6.010;2022-09-09T05:18:59;96937.25;;;12.00;100.00
55079;BME280;55187;49.496;6.010;2022-09-09T05:21:30;96935.44;;;11.87;100.00
55079;BME280;55187;49.496;6.010;2022-09-09T05:23:57;96935.06;;;11.90;100.00
55079;BME280;55187;49.496;6.010;2022-09-09T05:26:24;96949.13;;;11.90;100.00
55079;BME280;55187;49.496;6.010;2022-09-09T05:28:53;96935.06;;;11.83;100.00
55079;BME280;55187;49.496;6.010;2022-09-09T05:31:19;96942.59;;;11.86;100.00
55079;BME280;55187;49.496;6.010;2022-09-09T05:33:49;96945.66;;;11.83;100.00
55079;BME280;55187;49.496;6.010;2022-09-09T05:36:18;96954.22;;;11.92;100.00
55079;BME280;55187;49.496;6.010;2022-09-09T05:38:48;96947.88;;;11.93;100.00
55079;BME280;55187;49.496;6.010;2022-09-09T05:41:16;96946.47;;;11.90;100.00
55079;BME280;55187;49.496;6.010;2022-09-09T05:43:44;96956.84;;;11.99;100.00
55079;BME280;55187;49.496;6.010;2022-09-09T05:46:16;96947.06;;;11.99;100.00
55079;BME280;55187;49.496;6.010;2022-09-09T05:48:46;96947.41;;;12.09;100.00
55079;BME280;55187;49.496;6.010;2022-09-09T05:51:16;96950.69;;;12.05;100.00
55079;BME280;55187;49.496;6.010;2022-09-09T05:53:45;96949.66;;;12.12;100.00
55079;BME280;55187;49.496;6.010;2022-09-09T05:56:15;96954.94;;;12.12;100.00
55079;BME280;55187;49.496;6.010;2022-09-09T05:58:42;96960.66;;;12.09;100.00
55079;BME280;55187;49.496;6.010;2022-09-09T06:01:13;96957.81;;;12.11;100.00
55079;BME280;55187;49.496;6.010;2022-09-09T06:03:43;96952.69;;;12.09;100.00
55079;BME280;55187;49.496;6.010;2022-09-09T06:06:13;96961.41;;;12.23;100.00
55079;BME280;55187;49.496;6.010;2022-09-09T06:08:42;96970.53;;;12.34;100.00
55079;BME280;55187;49.496;6.010;2022-09-09T06:11:21;96968.69;;;12.34;100.00
55079;BME280;55187;49.496;6.010;2022-09-09T06:13:49;96968.59;;;12.16;100.00
55079;BME280;55187;49.496;6.010;2022-09-09T06:16:22;96963.22;;;12.29;100.00
55079;BME280;55187;49.496;6.010;2022-09-09T06:18:51;96959.59;;;12.49;100.00
55079;BME280;55187;49.496;6.010;2022-09-09T06:21:21;96959.06;;;12.65;100.00
55079;BME280;55187;49.496;6.010;2022-09-09T06:23:49;96960.28;;;12.69;100.00
55079;BME280;55187;49.496;6.010;2022-09-09T06:26:20;96964.94;;;12.74;100.00
55079;BME280;55187;49.496;6.010;2022-09-09T06:28:50;96960.13;;;12.89;100.00
55079;BME280;55187;49.496;6.010;2022-09-09T06:31:21;96961.38;;;12.62;100.00
55079;BME280;55187;49.496;6.010;2022-09-09T06:33:53;96951.06;;;12.72;100.00
55079;BME280;55187;49.496;6.010;2022-09-09T06:36:24;96956.44;;;12.90;100.00
55079;BME280;55187;49.496;6.010;2022-09-09T06:38:51;96950.00;;;13.05;100.00
55079;BME280;55187;49.496;6.010;2022-09-09T06:41:21;96948.56;;;13.02;100.00
55079;BME280;55187;49.496;6.010;2022-09-09T06:43:48;96955.69;;;13.27;100.00
55079;BME280;55187;49.496;6.010;2022-09-09T06:46:21;96956.66;;;13.57;100.00
55079;BME280;55187;49.496;6.010;2022-09-09T06:48:49;96963.06;;;13.50;100.00
55079;BME280;55187;49.496;6.010;2022-09-09T06:51:18;96964.97;;;13.42;100.00
55079;BME280;55187;49.496;6.010;2022-09-09T06:53:52;96963.06;;;13.31;100.00
55079;BME280;55187;49.496;6.010;2022-09-09T06:56:23;96957.31;;;13.34;100.00
55079;BME280;55187;49.496;6.010;2022-09-09T06:58:55;96968.38;;;13.50;100.00
55079;BME280;55187;49.496;6.010;2022-09-09T07:01:27;96969.50;;;13.42;100.00
55079;BME280;55187;49.496;6.010;2022-09-09T07:03:59;96961.13;;;13.38;100.00
55079;BME280;55187;49.496;6.010;2022-09-09T07:06:35;96961.31;;;13.80;97.98
55079;BME280;55187;49.496;6.010;2022-09-09T07:09:09;96960.09;;;14.97;95.49
55079;BME280;55187;49.496;6.010;2022-09-09T07:11:41;96965.72;;;14.65;94.65
55079;BME280;55187;49.496;6.010;2022-09-09T07:14:09;96968.13;;;14.55;95.54
55079;BME280;55187;49.496;6.010;2022-09-09T07:16:43;96965.09;;;15.29;92.50
55079;BME280;55187;49.496;6.010;2022-09-09T07:19:11;96963.91;;;15.01;91.76
55079;BME280;55187;49.496;6.010;2022-09-09T07:21:38;96967.97;;;15.75;91.12
55079;BME280;55187;49.496;6.010;2022-09-09T07:24:07;96965.19;;;15.22;90.96
55079;BME280;55187;49.496;6.010;2022-09-09T07:26:38;96972.50;;;15.15;91.23
55079;BME280;55187;49.496;6.010;2022-09-09T07:29:06;96965.06;;;15.52;89.23
55079;BME280;55187;49.496;6.010;2022-09-09T07:31:35;96966.09;;;14.93;90.97
55079;BME280;55187;49.496;6.010;2022-09-09T07:34:04;96969.19;;;14.66;93.29
55079;BME280;55187;49.496;6.010;2022-09-09T07:36:33;96961.44;;;14.34;94.87
55079;BME280;55187;49.496;6.010;2022-09-09T07:39:05;96974.19;;;14.44;93.67
55079;BME280;55187;49.496;6.010;2022-09-09T07:41:37;96966.78;;;14.16;94.99
55079;BME280;55187;49.496;6.010;2022-09-09T07:44:06;96979.22;;;16.46;86.76
55079;BME280;55187;49.496;6.010;2022-09-09T07:46:34;96970.78;;;17.89;77.95
55079;BME280;55187;49.496;6.010;2022-09-09T07:49:02;96974.75;;;19.17;73.37
55079;BME280;55187;49.496;6.010;2022-09-09T07:51:38;96979.16;;;17.03;78.70
55079;BME280;55187;49.496;6.010;2022-09-09T07:54:08;96976.03;;;15.91;83.14
55079;BME280;55187;49.496;6.010;2022-09-09T07:56:37;96976.63;;;15.93;86.42
55079;BME280;55187;49.496;6.010;2022-09-09T07:59:04;96971.69;;;15.26;85.46
55079;BME280;55187;49.496;6.010;2022-09-09T08:01:34;96970.41;;;15.41;88.13
55079;BME280;55187;49.496;6.010;2022-09-09T08:04:12;96983.00;;;16.04;86.36
55079;BME280;55187;49.496;6.010;2022-09-09T08:06:47;96982.53;;;17.71;77.98
55079;BME280;55187;49.496;6.010;2022-09-09T08:09:15;96973.66;;;16.47;80.12
55079;BME280;55187;49.496;6.010;2022-09-09T08:11:43;96972.34;;;15.69;86.48
55079;BME280;55187;49.496;6.010;2022-09-09T08:14:11;96983.72;;;14.94;88.30
55079;BME280;55187;49.496;6.010;2022-09-09T08:16:41;96991.78;;;14.63;91.89
55079;BME280;55187;49.496;6.010;2022-09-09T08:19:08;96977.63;;;14.33;92.67
55079;BME280;55187;49.496;6.010;2022-09-09T08:21:36;96987.00;;;14.35;92.30
55079;BME280;55187;49.496;6.010;2022-09-09T08:24:04;96987.41;;;14.51;93.30
55079;BME280;55187;49.496;6.010;2022-09-09T08:26:33;96984.22;;;15.49;91.42
55079;BME280;55187;49.496;6.010;2022-09-09T08:29:03;96990.72;;;17.43;80.03
55079;BME280;55187;49.496;6.010;2022-09-09T08:31:35;96992.28;;;16.88;80.30
55079;BME280;55187;49.496;6.010;2022-09-09T08:34:05;96986.50;;;17.30;79.82
55079;BME280;55187;49.496;6.010;2022-09-09T08:36:35;96989.50;;;16.54;81.13
55079;BME280;55187;49.496;6.010;2022-09-09T08:39:04;96992.88;;;18.23;75.92
55079;BME280;55187;49.496;6.010;2022-09-09T08:47:31;96994.56;;;20.80;63.12
55079;BME280;55187;49.496;6.010;2022-09-09T08:53:22;96994.31;;;19.98;67.43
55079;BME280;55187;49.496;6.010;2022-09-09T08:55:58;97002.16;;;19.24;68.04
55079;BME280;55187;49.496;6.010;2022-09-09T08:58:34;97001.72;;;19.00;69.73
55079;BME280;55187;49.496;6.010;2022-09-09T09:01:28;97003.00;;;18.98;68.71
55079;BME280;55187;49.496;6.010;2022-09-09T09:04:21;97008.03;;;17.74;74.14
55079;BME280;55187;49.496;6.010;2022-09-09T09:07:04;97004.81;;;16.58;75.89
55079;BME280;55187;49.496;6.010;2022-09-09T09:12:22;97006.00;;;18.03;73.93
55079;BME280;55187;49.496;6.010;2022-09-09T09:14:50;96998.25;;;19.80;65.73
55079;BME280;55187;49.496;6.010;2022-09-09T09:17:19;97001.34;;;20.04;65.63
55079;BME280;55187;49.496;6.010;2022-09-09T09:19:48;96996.72;;;19.14;69.27
55079;BME280;55187;49.496;6.010;2022-09-09T09:22:19;97000.59;;;17.59;72.86
55079;BME280;55187;49.496;6.010;2022-09-09T09:25:03;97009.41;;;16.46;76.85
55079;BME280;55187;49.496;6.010;2022-09-09T09:27:40;96994.81;;;16.66;75.45
55079;BME280;55187;49.496;6.010;2022-09-09T09:30:19;97005.19;;;16.33;78.34
55079;BME280;55187;49.496;6.010;2022-09-09T09:35:30;97000.47;;;17.32;75.27
55079;BME280;55187;49.496;6.010;2022-09-09T09:37:57;97000.75;;;17.52;74.96
55079;BME280;55187;49.496;6.010;2022-09-09T09:40:23;97000.53;;;17.20;75.87
55079;BME280;55187;49.496;6.010;2022-09-09T09:42:54;96998.13;;;17.35;76.11
55079;BME280;55187;49.496;6.010;2022-09-09T09:45:26;96988.38;;;17.29;74.94
55079;BME280;55187;49.496;6.010;2022-09-09T09:48:03;96987.34;;;17.86;73.09
55079;BME280;55187;49.496;6.010;2022-09-09T09:50:32;96996.09;;;18.26;69.60
55079;BME280;55187;49.496;6.010;2022-09-09T09:53:05;96988.44;;;19.58;66.96
55079;BME280;55187;49.496;6.010;2022-09-09T09:55:50;96982.22;;;18.78;68.31
55079;BME280;55187;49.496;6.010;2022-09-09T09:58:19;97004.25;;;17.53;72.16
55079;BME280;55187;49.496;6.010;2022-09-09T10:00:51;97001.97;;;16.48;77.73
55079;BME280;55187;49.496;6.010;2022-09-09T10:03:24;96997.72;;;16.64;76.82
55079;BME280;55187;49.496;6.010;2022-09-09T10:05:53;96995.56;;;16.49;77.61
55079;BME280;55187;49.496;6.010;2022-09-09T10:08:20;96993.09;;;16.60;78.08
55079;BME280;55187;49.496;6.010;2022-09-09T10:11:17;96987.84;;;16.65;76.76
55079;BME280;55187;49.496;6.010;2022-09-09T10:19:37;96999.56;;;17.43;76.94
55079;BME280;55187;49.496;6.010;2022-09-09T10:22:30;97001.88;;;18.39;71.19
55079;BME280;55187;49.496;6.010;2022-09-09T10:25:23;96995.09;;;16.81;76.42
55079;BME280;55187;49.496;6.010;2022-09-09T10:31:01;97002.75;;;15.68;78.60
55079;BME280;55187;49.496;6.010;2022-09-09T10:33:48;96999.16;;;15.62;83.21
55079;BME280;55187;49.496;6.010;2022-09-09T10:36:24;96990.00;;;16.51;80.01
55079;BME280;55187;49.496;6.010;2022-09-09T10:39:01;97000.75;;;17.52;76.75
55079;BME280;55187;49.496;6.010;2022-09-09T10:41:44;96999.56;;;16.92;75.19
55079;BME280;55187;49.496;6.010;2022-09-09T10:44:23;97000.72;;;16.10;80.96
55079;BME280;55187;49.496;6.010;2022-09-09T10:47:07;97010.47;;;14.87;90.48
55079;BME280;55187;49.496;6.010;2022-09-09T10:55:16;97005.50;;;14.30;100.00
55079;BME280;55187;49.496;6.010;2022-09-09T10:57:51;96999.88;;;14.38;100.00
55079;BME280;55187;49.496;6.010;2022-09-09T11:00:21;97013.00;;;14.82;100.00
55079;BME280;55187;49.496;6.010;2022-09-09T11:02:56;96999.28;;;15.56;98.41
55079;BME280;55187;49.496;6.010;2022-09-09T11:05:40;96988.50;;;16.14;93.34
55079;BME280;55187;49.496;6.010;2022-09-09T11:08:13;96987.00;;;16.19;90.38
55079;BME280;55187;49.496;6.010;2022-09-09T11:10:51;96985.13;;;15.90;93.91
55079;BME280;55187;49.496;6.010;2022-09-09T11:13:33;96975.06;;;15.10;96.24
55079;BME280;55187;49.496;6.010;2022-09-09T11:16:17;96971.81;;;15.08;97.86
55079;BME280;55187;49.496;6.010;2022-09-09T11:18:47;96969.59;;;15.05;97.46
55079;BME280;55187;49.496;6.010;2022-09-09T11:21:26;96974.34;;;15.26;93.89
55079;BME280;55187;49.496;6.010;2022-09-09T11:24:00;96972.16;;;15.23;94.68
55079;BME280;55187;49.496;6.010;2022-09-09T11:26:41;96979.47;;;15.51;95.40
55079;BME280;55187;49.496;6.010;2022-09-09T11:35:26;96970.44;;;16.05;91.37
55079;BME280;55187;49.496;6.010;2022-09-09T11:40:46;96981.22;;;16.10;86.00
55079;BME280;55187;49.496;6.010;2022-09-09T11:43:16;96975.94;;;16.27;86.82
55079;BME280;55187;49.496;6.010;2022-09-09T11:45:51;96981.94;;;16.05;88.56
55079;BME280;55187;49.496;6.010;2022-09-09T11:48:31;96971.97;;;16.01;87.00
55079;BME280;55187;49.496;6.010;2022-09-09T11:51:05;96971.97;;;16.01;87.35
55079;BME280;55187;49.496;6.010;2022-09-09T11:53:35;96973.28;;;15.86;91.42
55079;BME280;55187;49.496;6.010;2022-09-09T11:56:11;96972.16;;;15.47;88.23
55079;BME280;55187;49.496;6.010;2022-09-09T11:58:53;96975.72;;;15.52;91.08
55079;BME280;55187;49.496;6.010;2022-09-09T12:01:34;96974.34;;;15.50;88.96
55079;BME280;55187;49.496;6.010;2022-09-09T12:04:30;96965.41;;;15.68;87.36
55079;BME280;55187;49.496;6.010;2022-09-09T12:07:26;96963.78;;;15.79;88.95
55079;BME280;55187;49.496;6.010;2022-09-09T12:10:02;96972.78;;;16.01;82.92
55079;BME280;55187;49.496;6.010;2022-09-09T12:12:35;96977.59;;;16.16;85.25
55079;BME280;55187;49.496;6.010;2022-09-09T12:15:19;96979.78;;;16.19;83.06
55079;BME280;55187;49.496;6.010;2022-09-09T12:17:49;96972.03;;;16.63;84.98
55079;BME280;55187;49.496;6.010;2022-09-09T12:20:23;96972.63;;;16.65;79.90
55079;BME280;55187;49.496;6.010;2022-09-09T12:23:05;96970.72;;;16.77;79.04
55079;BME280;55187;49.496;6.010;2022-09-09T12:28:56;96969.06;;;16.60;82.19
55079;BME280;55187;49.496;6.010;2022-09-09T12:37:16;96980.25;;;16.45;85.10
55079;BME280;55187;49.496;6.010;2022-09-09T12:39:49;96964.84;;;16.64;82.93
55079;BME280;55187;49.496;6.010;2022-09-09T12:42:21;96964.66;;;16.82;82.32
55079;BME280;55187;49.496;6.010;2022-09-09T12:44:58;96962.31;;;17.03;78.76
55079;BME280;55187;49.496;6.010;2022-09-09T12:47:37;96949.56;;;17.27;77.80
55079;BME280;55187;49.496;6.010;2022-09-09T12:50:14;96958.63;;;17.43;78.92
55079;BME280;55187;49.496;6.010;2022-09-09T12:52:43;96965.59;;;17.44;76.17
55079;BME280;55187;49.496;6.010;2022-09-09T12:55:18;96962.81;;;17.55;74.51
55079;BME280;55187;49.496;6.010;2022-09-09T12:57:45;96957.31;;;17.45;76.52
55079;BME280;55187;49.496;6.010;2022-09-09T13:00:16;96964.44;;;17.95;75.15
55079;BME280;55187;49.496;6.010;2022-09-09T13:02:53;96961.28;;;18.26;76.02
55079;BME280;55187;49.496;6.010;2022-09-09T13:05:26;96973.88;;;17.64;74.58
55079;BME280;55187;49.496;6.010;2022-09-09T13:08:05;96965.84;;;17.25;79.02
55079;BME280;55187;49.496;6.010;2022-09-09T13:10:35;96979.25;;;16.91;80.92
55079;BME280;55187;49.496;6.010;2022-09-09T13:13:15;97008.44;;;16.24;83.71
55079;BME280;55187;49.496;6.010;2022-09-09T13:15:52;97043.53;;;14.67;97.42
55079;BME280;55187;49.496;6.010;2022-09-09T13:18:23;97020.66;;;13.37;100.00
55079;BME280;55187;49.496;6.010;2022-09-09T13:20:51;97029.59;;;12.61;100.00
55079;BME280;55187;49.496;6.010;2022-09-09T13:23:19;97029.75;;;12.28;100.00
55079;BME280;55187;49.496;6.010;2022-09-09T13:26:00;97011.06;;;12.09;100.00
55079;BME280;55187;49.496;6.010;2022-09-09T13:28:29;97010.44;;;12.07;100.00
55079;BME280;55187;49.496;6.010;2022-09-09T13:30:58;97010.72;;;11.92;100.00
55079;BME280;55187;49.496;6.010;2022-09-09T13:33:30;97002.75;;;11.99;100.00
55079;BME280;55187;49.496;6.010;2022-09-09T13:36:03;96998.44;;;11.98;100.00
55079;BME280;55187;49.496;6.010;2022-09-09T13:38:33;96991.50;;;12.04;100.00
55079;BME280;55187;49.496;6.010;2022-09-09T13:41:04;96997.84;;;11.96;100.00
55079;BME280;55187;49.496;6.010;2022-09-09T13:43:36;96990.47;;;12.05;100.00
55079;BME280;55187;49.496;6.010;2022-09-09T13:46:20;96988.16;;;12.22;100.00
55079;BME280;55187;49.496;6.010;2022-09-09T13:48:55;96977.28;;;12.30;100.00
55079;BME280;55187;49.496;6.010;2022-09-09T13:51:30;96969.44;;;12.42;100.00
55079;BME280;55187;49.496;6.010;2022-09-09T13:53:58;96973.31;;;12.77;100.00
55079;BME280;55187;49.496;6.010;2022-09-09T13:56:27;96970.22;;;13.06;100.00
55079;BME280;55187;49.496;6.010;2022-09-09T13:58:53;96964.63;;;13.39;100.00
55079;BME280;55187;49.496;6.010;2022-09-09T14:01:19;96963.97;;;13.80;100.00
55079;BME280;55187;49.496;6.010;2022-09-09T14:03:46;96962.31;;;14.28;100.00
55079;BME280;55187;49.496;6.010;2022-09-09T14:06:13;96946.28;;;14.77;100.00
55079;BME280;55187;49.496;6.010;2022-09-09T14:08:39;96957.50;;;14.67;100.00
55079;BME280;55187;49.496;6.010;2022-09-09T14:11:10;96950.25;;;15.33;100.00
55079;BME280;55187;49.496;6.010;2022-09-09T14:13:38;96958.16;;;15.16;100.00
55079;BME280;55187;49.496;6.010;2022-09-09T14:16:05;96952.69;;;15.46;100.00
55079;BME280;55187;49.496;6.010;2022-09-09T14:18:31;96952.88;;;15.57;100.00
55079;BME280;55187;49.496;6.010;2022-09-09T14:20:58;96952.63;;;15.70;100.00
55079;BME280;55187;49.496;6.010;2022-09-09T14:23:24;96954.28;;;15.71;100.00
55079;BME280;55187;49.496;6.010;2022-09-09T14:25:51;96953.94;;;15.56;100.00
55079;BME280;55187;49.496;6.010;2022-09-09T14:28:17;96954.66;;;15.27;100.00
55079;BME280;55187;49.496;6.010;2022-09-09T14:30:44;96958.91;;;15.64;100.00
55079;BME280;55187;49.496;6.010;2022-09-09T14:33:12;96944.44;;;15.71;100.00
55079;BME280;55187;49.496;6.010;2022-09-09T14:35:39;96950.91;;;15.52;100.00